Accueil
METAR-TAF:

METAR-TAF

Aéroports :

Gilze-Rijen, Pays-Bas

latitude: 51-34N, longitude: 004-56E, altitude: 15 m

Observation

Le bulletin a été fait il y a 10 minutes, à 05:55 UTC
Vent 1 kt de direction variable
Température 1°C
Humidité 86%
Pression 1023 hPa
Visibilité: 5000 m
Ciel couvert à une hauteur de 6500 ft
brume

METAR: EHGR 080555Z AUTO VRB01KT 5000 BR OVC065 01/M01 Q1023 WHT

Heure: 07:05 (06:05 UTC)

Prévision

Le bulletin a été fait il y a 51 minutes, à 05:14 UTC
Prévision valable du 08 à 06 UTC au 08 à 18 UTC
Vent 5 kt de ouest
Visibilité: 6000 m
Nuages fragmentés à une hauteur de 6000 ft

TAF: EHGR 080514Z 0806/0818 27005KT 6000 BKN060

Observations et prévisions météorologiques de plus de 4000 aéroports (messages METAR et TAF).

Les stations disponibles sont représentées par des disques jaunes et rouges sur la carte.

Passer la souris dessus pour voir le nom de la station.

Cliquer dessus pour voir les observations et prévisions météorologiques.

Pour changer de carte: cliquez sur les boutons verts avec une croix noire pour zoomer, sur le bouton vert avec un tiret pour effectuer un zoom arrière, ou sur les flèches vertes pour les cartes adjacentes.


METAR-TAF: